.
WxDataArchive / Data Records for 2010-01-07
2010-01-06 January 2010 2010-01-08

Data Records for Thursday, 07 January 2010

Time	Temp	Chill	HIndex	Humid	Dewpt	 Wind 	HiWind	WindDir	Rain 	Barom 
-----	----	-----	------	-----	-----	------	------	-------	-----	----- 
00:00	18.8	18.8	18.8	75	12.2	1	4	248	0.00	30.192 
00:05	18.6	18.6	18.6	74	11.7	1	5	248	0.00	30.192 
00:10	18.4	18.4	18.4	74	11.5	1	4	248	0.00	30.192 
00:15	18.4	18.4	18.4	75	11.8	1	3	270	0.00	30.189 
00:20	18.3	18.3	18.3	74	11.4	1	4	248	0.00	30.189 
00:25	18.3	18.3	18.3	75	11.7	1	5	248	0.00	30.189 
00:30	18.3	18.3	18.3	75	11.7	1	4	248	0.00	30.187 
00:35	18.1	18.1	18.1	74	11.2	2	5	248	0.00	30.187 
00:40	18.0	18.0	18.0	74	11.1	2	6	248	0.00	30.187 
00:45	18.0	18.0	18.0	74	11.1	1	4	248	0.00	30.181 
00:50	18.0	18.0	18.0	74	11.1	1	4	248	0.00	30.181 
00:55	17.8	17.8	17.8	74	10.9	2	5	248	0.00	30.181 
01:00	17.8	17.8	17.8	73	10.6	1	4	248	0.00	30.177 
01:05	17.7	17.7	17.7	73	10.5	2	6	248	0.00	30.177 
01:10	17.7	17.7	17.7	73	10.5	2	6	248	0.00	30.177 
01:15	17.7	17.7	17.7	73	10.5	1	3	248	0.00	30.175 
01:20	17.5	17.5	17.5	72	10.0	2	5	248	0.00	30.175 
01:25	17.5	17.5	17.5	72	10.0	2	5	248	0.00	30.175 
01:30	17.7	17.7	17.7	71	9.9	2	6	248	0.00	30.175 
01:35	17.7	17.7	17.7	71	9.9	2	5	248	0.00	30.175 
01:40	17.5	17.5	17.5	70	9.4	3	5	270	0.00	30.175 
01:45	17.5	17.5	17.5	69	9.1	2	4	248	0.00	30.175 
01:50	17.5	17.5	17.5	69	9.1	2	6	248	0.00	30.175 
01:55	17.5	17.5	17.5	69	9.1	1	4	248	0.00	30.175 
02:00	17.5	17.5	17.5	69	9.1	1	3	248	0.00	30.179 
02:05	17.5	17.5	17.5	69	9.1	2	6	248	0.00	30.179 
02:10	17.5	17.5	17.5	69	9.1	1	3	248	0.00	30.179 
02:15	17.7	17.7	17.7	69	9.3	1	3	225	0.00	30.171 
02:20	17.7	17.7	17.7	69	9.3	1	2	248	0.00	30.171 
02:25	17.7	17.7	17.7	69	9.3	1	3	248	0.00	30.171 
02:30	17.7	17.7	17.7	69	9.3	0	2	248	0.00	30.161 
02:35	17.8	17.8	17.8	70	9.7	0	1	248	0.00	30.161 
02:40	17.8	17.8	17.8	70	9.7	0	1	248	0.00	30.161 
02:45	17.8	17.8	17.8	70	9.7	0	1	248	0.00	30.164 
02:50	17.8	17.8	17.8	70	9.7	0	1	248	0.00	30.164 
02:55	17.8	17.8	17.8	70	9.7	0	2	248	0.00	30.164 
03:00	18.0	18.0	18.0	70	9.9	0	2	248	0.00	30.167 
03:05	18.0	18.0	18.0	70	9.9	0	2	248	0.00	30.167 
03:10	18.0	18.0	18.0	70	9.9	0	2	248	0.00	30.167 
03:15	18.0	18.0	18.0	70	9.9	0	2	248	0.00	30.171 
03:20	18.1	18.1	18.1	70	10.0	1	3	248	0.00	30.171 
03:25	18.1	18.1	18.1	69	9.7	1	3	248	0.00	30.171 
03:30	18.1	18.1	18.1	68	9.3	1	3	248	0.00	30.159 
03:35	18.1	18.1	18.1	68	9.3	0	2	248	0.00	30.159 
03:40	18.3	18.3	18.3	69	9.9	0	1	248	0.00	30.159 
03:45	18.3	18.3	18.3	69	9.9	0	1	248	0.00	30.155 
03:50	18.3	18.3	18.3	68	9.5	1	3	248	0.00	30.155 
03:55	18.3	18.3	18.3	68	9.5	1	3	248	0.00	30.155 
04:00	18.3	18.3	18.3	68	9.5	1	3	248	0.00	30.154 
04:05	18.3	18.3	18.3	68	9.5	1	4	248	0.00	30.154 
04:10	18.3	18.3	18.3	69	9.9	2	5	248	0.00	30.154 
04:15	18.3	18.3	18.3	69	9.9	1	5	248	0.00	30.151 
04:20	18.4	18.4	18.4	69	10.0	1	3	248	0.00	30.151 
04:25	18.4	18.4	18.4	68	9.6	1	4	225	0.00	30.151 
04:30	18.3	18.3	18.3	67	9.2	2	6	248	0.00	30.146 
04:35	18.3	18.3	18.3	68	9.5	1	3	248	0.00	30.146 
04:40	18.3	18.3	18.3	68	9.5	1	3	248	0.00	30.146 
04:45	18.3	18.3	18.3	69	9.9	0	1	248	0.00	30.145 
04:50	18.3	18.3	18.3	69	9.9	0	1	248	0.00	30.145 
04:55	18.3	18.3	18.3	69	9.9	0	0	---	0.00	30.145 
05:00	18.3	18.3	18.3	70	10.2	0	2	248	0.00	30.135 
05:05	18.3	18.3	18.3	69	9.9	0	3	248	0.00	30.135 
05:10	18.3	18.3	18.3	70	10.2	0	2	248	0.00	30.135 
05:15	18.3	18.3	18.3	70	10.2	0	1	248	0.00	30.127 
05:20	18.1	18.1	18.1	69	9.7	1	3	248	0.00	30.127 
05:25	18.0	18.0	18.0	70	9.9	0	2	248	0.00	30.127 
05:30	17.8	17.8	17.8	70	9.7	0	1	248	0.00	30.119 
05:35	17.8	17.8	17.8	71	10.0	0	3	248	0.00	30.119 
05:40	17.7	17.7	17.7	71	9.9	0	1	248	0.00	30.119 
05:45	17.7	17.7	17.7	71	9.9	0	1	248	0.00	30.119 
05:50	17.5	17.5	17.5	71	9.7	0	1	248	0.00	30.119 
05:55	17.3	17.3	17.3	72	9.8	0	1	248	0.00	30.119 
06:00	17.3	17.3	17.3	72	9.8	0	1	248	0.00	30.115 
06:05	17.2	17.2	17.2	73	10.1	0	1	248	0.00	30.115 
06:10	17.2	17.2	17.2	73	10.1	0	1	248	0.00	30.115 
06:15	17.0	17.0	17.0	73	9.9	0	0	---	0.00	30.121 
06:20	17.0	17.0	17.0	74	10.2	0	1	248	0.00	30.121 
06:25	17.0	17.0	17.0	74	10.2	0	0	---	0.00	30.121 
06:30	17.0	17.0	17.0	75	10.5	0	1	248	0.00	30.117 
06:35	17.0	17.0	17.0	75	10.5	0	1	248	0.00	30.117 
06:40	17.0	17.0	17.0	75	10.5	0	2	248	0.00	30.117 
06:45	17.0	17.0	17.0	75	10.5	0	1	248	0.00	30.116 
06:50	17.0	17.0	17.0	76	10.8	0	2	248	0.00	30.116 
06:55	17.2	17.2	17.2	76	11.0	0	1	248	0.00	30.116 
07:00	17.2	17.2	17.2	76	11.0	0	1	248	0.00	30.115 
07:05	17.2	17.2	17.2	76	11.0	0	1	248	0.00	30.115 
07:10	17.2	17.2	17.2	76	11.0	0	1	248	0.00	30.115 
07:15	17.2	17.2	17.2	76	11.0	0	1	248	0.00	30.113 
07:20	17.3	17.3	17.3	77	11.3	0	1	248	0.00	30.113 
07:25	17.3	17.3	17.3	77	11.3	0	1	248	0.00	30.113 
07:30	17.5	17.5	17.5	77	11.5	0	1	248	0.00	30.113 
07:35	17.5	17.5	17.5	77	11.5	0	1	248	0.00	30.113 
07:40	17.5	17.5	17.5	77	11.5	0	1	248	0.00	30.113 
07:45	17.7	17.7	17.7	77	11.7	0	2	248	0.00	30.113 
07:50	17.7	17.7	17.7	77	11.7	0	1	248	0.00	30.113 
07:55	17.7	17.7	17.7	78	12.0	0	2	248	0.00	30.113 
08:00	17.8	17.8	17.8	78	12.1	0	1	202	0.00	30.110 
08:05	17.8	17.8	17.8	78	12.1	0	3	202	0.00	30.110 
08:10	18.0	18.0	18.0	79	12.6	0	2	158	0.00	30.110 
08:15	18.0	18.0	18.0	80	12.9	0	3	90	0.00	30.099 
08:20	18.1	18.1	18.1	81	13.3	0	1	90	0.00	30.099 
08:25	18.1	18.1	18.1	81	13.3	0	2	90	0.00	30.099 
08:30	18.1	18.1	18.1	82	13.5	0	2	90	0.00	30.096 
08:35	18.3	18.3	18.3	83	14.0	1	3	68	0.00	30.096 
08:40	18.3	18.3	18.3	83	14.0	0	2	68	0.00	30.096 
08:45	18.4	18.4	18.4	84	14.4	0	3	68	0.00	30.089 
08:50	18.4	18.4	18.4	84	14.4	0	3	68	0.00	30.089 
08:55	18.6	18.6	18.6	84	14.6	0	2	68	0.00	30.089 
09:00	18.8	18.8	18.8	85	15.1	0	2	135	0.00	30.081 
09:05	18.8	18.8	18.8	85	15.1	0	2	135	0.00	30.081 
09:10	18.9	18.9	18.9	85	15.2	0	2	135	0.00	30.081 
09:15	18.9	18.9	18.9	85	15.2	0	3	135	0.00	30.074 
09:20	18.9	18.9	18.9	85	15.2	1	3	135	0.00	30.074 
09:25	19.1	19.1	19.1	86	15.6	1	2	135	0.00	30.074 
09:30	19.1	19.1	19.1	86	15.6	1	3	135	0.00	30.067 
09:35	19.1	19.1	19.1	86	15.6	0	2	135	0.00	30.067 
09:40	19.1	19.1	19.1	86	15.6	1	3	112	0.00	30.067 
09:45	19.2	19.2	19.2	86	15.7	1	3	112	0.00	30.058 
09:50	19.2	19.2	19.2	87	16.0	2	4	112	0.00	30.058 
09:55	19.2	19.2	19.2	87	16.0	2	6	112	0.00	30.058 
10:00	19.2	19.2	19.2	87	16.0	1	5	90	0.00	30.063 
10:05	19.4	19.4	19.4	87	16.2	1	5	112	0.00	30.063 
10:10	19.5	19.5	19.5	87	16.3	1	3	90	0.00	30.063 
10:15	19.5	19.5	19.5	87	16.3	1	4	112	0.00	30.057 
10:20	19.5	19.5	19.5	87	16.3	2	5	112	0.00	30.057 
10:25	19.7	19.7	19.7	88	16.7	1	3	135	0.00	30.057 
10:30	19.9	19.9	19.9	87	16.7	2	4	90	0.00	30.049 
10:35	19.9	19.9	19.9	87	16.7	2	4	112	0.00	30.049 
10:40	19.9	19.9	19.9	88	16.9	1	4	112	0.00	30.049 
10:45	20.0	20.0	20.0	88	17.0	1	3	90	0.00	30.050 
10:50	20.0	20.0	20.0	88	17.0	1	2	90	0.00	30.050 
10:55	20.2	20.2	20.2	88	17.2	1	4	135	0.00	30.050 
11:00	20.2	20.2	20.2	88	17.2	1	3	90	0.00	30.050 
11:05	20.3	20.3	20.3	88	17.3	1	4	90	0.00	30.050 
11:10	20.3	20.3	20.3	88	17.3	0	2	135	0.00	30.050 
11:15	20.3	20.3	20.3	88	17.3	1	4	112	0.00	30.050 
11:20	20.5	20.5	20.5	88	17.5	0	1	135	0.00	30.050 
11:25	20.6	20.6	20.6	88	17.6	0	2	135	0.00	30.050 
11:30	20.8	20.8	20.8	88	17.8	1	2	135	0.00	30.045 
11:35	20.8	20.8	20.8	88	17.8	1	4	112	0.00	30.045 
11:40	20.8	20.8	20.8	88	17.8	1	2	112	0.00	30.045 
11:45	20.8	20.8	20.8	88	17.8	1	4	90	0.00	30.022 
11:50	21.0	21.0	21.0	88	18.0	1	7	90	0.00	30.022 
11:55	21.0	21.0	21.0	88	18.0	1	4	112	0.00	30.022 
12:00	21.0	21.0	21.0	88	18.0	1	4	90	0.00	30.011 
12:05	21.0	21.0	21.0	88	18.0	1	4	90	0.00	30.011 
12:10	20.8	20.8	20.8	88	17.8	2	5	90	0.00	30.011 
12:15	20.8	20.8	20.8	88	17.8	1	3	68	0.00	30.002 
12:20	21.0	21.0	21.0	88	18.0	0	2	135	0.00	30.002 
12:25	21.1	21.1	21.1	88	18.1	0	1	135	0.00	30.002 
12:30	21.1	21.1	21.1	88	18.1	1	3	90	0.00	29.985 
12:35	21.0	21.0	21.0	88	18.0	1	3	112	0.00	29.985 
12:40	21.0	21.0	21.0	88	18.0	1	3	90	0.00	29.985 
12:45	21.0	21.0	21.0	88	18.0	0	2	112	0.00	29.969 
12:50	21.0	21.0	21.0	88	18.0	2	5	112	0.00	29.969 
12:55	20.8	20.8	20.8	88	17.8	2	4	90	0.00	29.969 
13:00	20.8	20.8	20.8	88	17.8	1	4	90	0.00	29.956 
13:05	20.8	20.8	20.8	88	17.8	1	4	90	0.00	29.956 
13:10	21.0	21.0	21.0	88	18.0	1	2	90	0.00	29.956 
13:15	21.1	21.1	21.1	88	18.1	1	3	135	0.00	29.950 
13:20	21.1	21.1	21.1	88	18.1	1	3	90	0.00	29.950 
13:25	21.1	21.1	21.1	88	18.1	2	3	90	0.00	29.950 
13:30	21.1	21.1	21.1	88	18.1	1	4	135	0.00	29.938 
13:35	21.1	21.1	21.1	88	18.1	1	3	90	0.00	29.938 
13:40	21.1	21.1	21.1	88	18.1	1	3	90	0.00	29.938 
13:45	21.1	21.1	21.1	88	18.1	1	5	90	0.00	29.933 
13:50	21.4	21.4	21.4	88	18.4	1	4	90	0.00	29.933 
13:55	21.6	21.6	21.6	88	18.6	1	4	112	0.00	29.933 
14:00	21.6	21.6	21.6	88	18.6	1	3	112	0.00	29.927 
14:05	21.6	21.6	21.6	87	18.3	2	4	90	0.00	29.927 
14:10	21.6	21.6	21.6	87	18.3	1	5	90	0.00	29.927 
14:15	21.8	21.8	21.8	88	18.8	0	2	135	0.00	29.920 
14:20	22.1	22.1	22.1	88	19.1	0	2	135	0.00	29.920 
14:25	22.2	22.2	22.2	87	18.9	1	3	112	0.00	29.920 
14:30	22.2	22.2	22.2	87	18.9	1	4	135	0.00	29.917 
14:35	22.1	22.1	22.1	87	18.8	1	3	112	0.00	29.917 
14:40	21.9	21.9	21.9	86	18.4	1	5	112	0.00	29.917 
14:45	21.9	21.9	21.9	87	18.6	1	3	135	0.00	29.906 
14:50	21.6	21.6	21.6	87	18.3	2	6	112	0.00	29.906 
14:55	21.4	21.4	21.4	87	18.1	1	3	135	0.00	29.906 
15:00	21.6	21.6	21.6	87	18.3	1	3	135	0.00	29.903 
15:05	21.6	21.6	21.6	87	18.3	1	4	112	0.00	29.903 
15:10	21.9	21.9	21.9	87	18.6	1	2	90	0.00	29.903 
15:15	22.2	22.2	22.2	87	18.9	1	3	135	0.00	29.905 
15:20	22.4	22.4	22.4	87	19.1	1	2	112	0.00	29.905 
15:25	22.4	22.4	22.4	87	19.1	1	3	135	0.00	29.905 
15:30	22.5	22.5	22.5	87	19.2	1	3	135	0.00	29.904 
15:35	22.5	22.5	22.5	87	19.2	0	1	112	0.00	29.904 
15:40	22.4	22.4	22.4	87	19.1	0	2	135	0.00	29.904 
15:45	22.5	22.5	22.5	87	19.2	0	2	135	0.00	29.901 
15:50	22.7	22.7	22.7	86	19.2	0	2	135	0.00	29.901 
15:55	22.9	22.9	22.9	86	19.4	0	1	180	0.00	29.901 
16:00	22.9	22.9	22.9	86	19.4	0	2	180	0.00	29.903 
16:05	22.7	22.7	22.7	86	19.2	1	2	158	0.00	29.903 
16:10	22.5	22.5	22.5	85	18.7	1	3	135	0.00	29.903 
16:15	22.4	22.4	22.4	85	18.6	0	2	112	0.00	29.903 
16:20	22.4	22.4	22.4	85	18.6	0	2	112	0.00	29.903 
16:25	22.4	22.4	22.4	86	18.9	0	1	135	0.00	29.903 
16:30	22.4	22.4	22.4	86	18.9	0	2	135	0.00	29.903 
16:35	22.2	22.2	22.2	86	18.7	0	2	135	0.00	29.903 
16:40	22.2	22.2	22.2	86	18.7	0	2	90	0.00	29.903 
16:45	22.2	22.2	22.2	86	18.7	0	1	90	0.00	29.902 
16:50	22.2	22.2	22.2	86	18.7	0	1	90	0.00	29.902 
16:55	22.2	22.2	22.2	86	18.7	0	1	90	0.00	29.902 
17:00	22.2	22.2	22.2	86	18.7	0	1	90	0.00	29.901 
17:05	22.2	22.2	22.2	86	18.7	0	1	90	0.00	29.901 
17:10	22.1	22.1	22.1	86	18.6	0	1	90	0.00	29.901 
17:15	22.1	22.1	22.1	87	18.8	0	0	---	0.00	29.904 
17:20	21.9	21.9	21.9	87	18.6	0	0	---	0.00	29.904 
17:25	21.9	21.9	21.9	87	18.6	0	0	---	0.00	29.904 
17:30	21.8	21.8	21.8	87	18.5	0	0	---	0.00	29.906 
17:35	21.6	21.6	21.6	87	18.3	0	0	---	0.00	29.906 
17:40	21.4	21.4	21.4	87	18.1	0	0	---	0.00	29.906 
17:45	21.4	21.4	21.4	88	18.4	0	0	---	0.00	29.906 
17:50	21.3	21.3	21.3	88	18.3	0	0	---	0.00	29.906 
17:55	21.3	21.3	21.3	88	18.3	0	1	90	0.00	29.906 
18:00	21.3	21.3	21.3	88	18.3	0	0	---	0.00	29.906 
18:05	21.3	21.3	21.3	88	18.3	0	0	---	0.00	29.906 
18:10	21.1	21.1	21.1	88	18.1	0	0	---	0.00	29.906 
18:15	21.1	21.1	21.1	88	18.1	0	0	---	0.00	29.906 
18:20	21.1	21.1	21.1	88	18.1	0	0	---	0.00	29.906 
18:25	21.1	21.1	21.1	89	18.4	0	0	---	0.00	29.906 
18:30	21.1	21.1	21.1	89	18.4	0	0	---	0.00	29.907 
18:35	21.1	21.1	21.1	89	18.4	0	0	---	0.00	29.907 
18:40	21.1	21.1	21.1	89	18.4	0	0	---	0.00	29.907 
18:45	21.0	21.0	21.0	89	18.3	0	0	---	0.00	29.907 
18:50	21.0	21.0	21.0	89	18.3	0	0	---	0.00	29.907 
18:55	21.0	21.0	21.0	89	18.3	0	0	---	0.00	29.907 
19:00	21.0	21.0	21.0	89	18.3	0	0	---	0.00	29.907 
19:05	21.0	21.0	21.0	89	18.3	0	0	---	0.00	29.907 
19:10	20.8	20.8	20.8	89	18.1	0	0	---	0.00	29.907 
19:15	20.8	20.8	20.8	89	18.1	0	0	---	0.00	29.907 
19:20	20.8	20.8	20.8	89	18.1	0	0	---	0.00	29.907 
19:25	20.8	20.8	20.8	89	18.1	0	0	---	0.00	29.907 
19:30	20.8	20.8	20.8	89	18.1	0	0	---	0.00	29.908 
19:35	20.8	20.8	20.8	89	18.1	0	0	---	0.00	29.908 
19:40	20.6	20.6	20.6	89	17.9	0	0	---	0.00	29.908 
19:45	20.6	20.6	20.6	89	17.9	0	0	---	0.00	29.907 
19:50	20.6	20.6	20.6	90	18.1	0	0	---	0.00	29.907 
19:55	20.6	20.6	20.6	90	18.1	0	0	---	0.00	29.907 
20:00	20.8	20.8	20.8	90	18.3	0	1	90	0.00	29.906 
20:05	21.0	21.0	21.0	90	18.5	0	1	90	0.00	29.906 
20:10	21.1	21.1	21.1	90	18.6	0	0	---	0.00	29.906 
20:15	21.1	21.1	21.1	90	18.6	0	2	202	0.00	29.904 
20:20	21.0	21.0	21.0	90	18.5	0	2	202	0.00	29.904 
20:25	20.8	20.8	20.8	90	18.3	0	3	248	0.00	29.904 
20:30	20.6	20.6	20.6	89	17.9	1	3	270	0.00	29.904 
20:35	20.3	20.3	20.3	89	17.6	1	4	270	0.00	29.904 
20:40	20.2	20.2	20.2	89	17.5	1	3	248	0.00	29.904 
20:45	20.0	20.0	20.0	88	17.0	1	3	248	0.00	29.909 
20:50	19.9	19.9	19.9	88	16.9	1	4	248	0.00	29.909 
20:55	19.7	19.7	19.7	88	16.7	1	3	248	0.00	29.909 
21:00	19.5	19.5	19.5	88	16.5	0	2	225	0.00	29.912 
21:05	19.4	19.4	19.4	88	16.4	1	3	248	0.00	29.912 
21:10	19.2	19.2	19.2	88	16.2	1	4	248	0.00	29.912 
21:15	19.2	19.2	19.2	87	16.0	1	4	248	0.00	29.913 
21:20	19.1	19.1	19.1	87	15.9	2	4	248	0.00	29.913 
21:25	19.1	19.1	19.1	87	15.9	1	3	225	0.00	29.913 
21:30	18.9	18.9	18.9	87	15.7	1	4	225	0.00	29.916 
21:35	18.9	18.9	18.9	87	15.7	2	5	248	0.00	29.916 
21:40	18.9	18.9	18.9	87	15.7	2	5	248	0.00	29.916 
21:45	18.6	18.6	18.6	86	15.1	2	5	248	0.00	29.922 
21:50	18.4	18.4	18.4	86	14.9	2	4	248	0.00	29.922 
21:55	18.1	18.1	18.1	86	14.6	2	4	248	0.00	29.922 
22:00	18.0	18.0	18.0	86	14.5	1	5	248	0.00	29.925 
22:05	17.8	17.8	17.8	85	14.1	2	9	270	0.00	29.925 
22:10	17.7	17.7	17.7	85	14.0	2	6	248	0.00	29.925 
22:15	17.3	17.3	17.3	85	13.6	2	4	248	0.00	29.928 
22:20	17.2	17.2	17.2	85	13.5	2	4	248	0.00	29.928 
22:25	17.2	17.2	17.2	85	13.5	2	4	248	0.00	29.928 
22:30	17.0	17.0	17.0	85	13.3	2	4	248	0.00	29.935 
22:35	16.9	16.9	16.9	85	13.2	2	3	248	0.00	29.935 
22:40	16.7	16.7	16.7	85	13.0	1	4	248	0.00	29.935 
22:45	16.7	16.7	16.7	85	13.0	1	4	248	0.00	29.939 
22:50	16.7	16.7	16.7	85	13.0	2	4	248	0.00	29.939 
22:55	16.7	16.7	16.7	85	13.0	2	4	270	0.00	29.939 
23:00	16.7	16.7	16.7	85	13.0	2	5	248	0.00	29.940 
23:05	16.7	16.7	16.7	85	13.0	2	5	248	0.00	29.940 
23:10	16.5	16.5	16.5	85	12.8	2	6	248	0.00	29.940 
23:15	16.4	16.4	16.4	84	12.4	2	6	292	0.00	29.944 
23:20	16.2	16.2	16.2	84	12.2	2	4	248	0.00	29.944 
23:25	16.2	16.2	16.2	84	12.2	2	4	248	0.00	29.944 
23:30	16.1	16.1	16.1	84	12.1	2	4	315	0.00	29.951 
23:35	16.1	16.1	16.1	84	12.1	2	4	248	0.00	29.951 
23:40	15.9	15.9	15.9	84	11.9	2	5	248	0.00	29.951 
23:45	15.7	15.7	15.7	84	11.7	2	5	248	0.00	29.952 
23:50	15.6	15.6	15.6	84	11.6	2	4	248	0.00	29.952 
23:55	15.6	15.6	15.6	84	11.6	1	3	248	0.00	29.952 

CoCoRaHS
IN-AL-39
A2 Web Hosting
Creative Commons License
GoDaddy
search engine by freefind advanced

loaded 2018-11-17 14:03:51 • last modified 2010-11-18 10:43:29
Privacy PolicyDisclaimer
• wx.awcolley.com is powered by PmWiki v.2002016 •
• all content (unless otherwise noted) © 2018 A W Colley